Terminal Aerodrome Forecast
Issued by NWS

Home | Current Version | Previous Version | Text Only | Print | Product List | Glossary On
Versions: 1 2 3 4 5 6 7 8 9 10 11 12 13
000
FTUS46 KMTR 202320
TAFSTS
TAF
KSTS 202320Z 2100/2124 16010KT P6SM SKC
     FM210500 VRB03KT P6SM FEW150
     FM210900 00000KT P6SM SKC
     FM211800 19005KT P6SM SKC
     FM212100 18010KT P6SM SKC=

USA.gov is the U.S. government's official web portal to all federal, state and local government web resources and services.